createdAt,value
2018-04-11T00:00:06.367Z,1009.22
2018-04-11T00:01:06.219Z,1009.21
2018-04-11T00:02:06.205Z,1009.24
2018-04-11T00:03:06.292Z,1009.21
2018-04-11T00:04:06.218Z,1009.2
2018-04-11T00:05:06.275Z,1009.19
2018-04-11T00:06:06.255Z,1009.24
2018-04-11T00:07:06.229Z,1009.2
2018-04-11T00:08:06.237Z,1009.23
2018-04-11T00:09:06.230Z,1009.24
2018-04-11T00:10:06.268Z,1009.24
2018-04-11T00:11:06.257Z,1009.23
2018-04-11T00:12:06.257Z,1009.22
2018-04-11T00:13:06.233Z,1009.25
2018-04-11T00:14:06.239Z,1009.28
2018-04-11T00:15:06.251Z,1009.24
2018-04-11T00:16:06.243Z,1009.22
2018-04-11T00:17:06.253Z,1009.25
2018-04-11T00:18:06.402Z,1009.25
2018-04-11T00:19:06.240Z,1009.24
2018-04-11T00:20:06.232Z,1009.23
2018-04-11T00:21:06.255Z,1009.22
2018-04-11T00:22:06.260Z,1009.2
2018-04-11T00:23:06.252Z,1009.18
2018-04-11T00:24:06.501Z,1009.19
2018-04-11T00:25:06.538Z,1009.17
2018-04-11T00:26:06.341Z,1009.16
2018-04-11T00:27:06.368Z,1009.13
2018-04-11T00:28:06.260Z,1009.11
2018-04-11T00:29:06.260Z,1009.14
2018-04-11T00:30:06.251Z,1009.13
2018-04-11T00:31:06.662Z,1009.14
2018-04-11T00:32:06.322Z,1009.14
2018-04-11T00:33:06.460Z,1009.12
2018-04-11T00:34:06.241Z,1009.13
2018-04-11T00:35:06.518Z,1009.11
2018-04-11T00:36:06.211Z,1009.13
2018-04-11T00:37:06.237Z,1009.16
2018-04-11T00:38:06.258Z,1009.12
2018-04-11T00:39:06.386Z,1009.19
2018-04-11T00:40:06.307Z,1009.16
2018-04-11T00:41:06.213Z,1009.16
2018-04-11T00:42:06.493Z,1009.19
2018-04-11T00:43:06.215Z,1009.18
2018-04-11T00:44:06.231Z,1009.21
2018-04-11T00:45:06.295Z,1009.25
2018-04-11T00:46:06.310Z,1009.27
2018-04-11T00:47:06.183Z,1009.25
2018-04-11T00:48:06.232Z,1009.22
2018-04-11T00:49:06.364Z,1009.23
2018-04-11T00:50:06.240Z,1009.25
2018-04-11T00:51:06.223Z,1009.22
2018-04-11T00:52:06.246Z,1009.25
2018-04-11T00:53:06.292Z,1009.27
2018-04-11T00:54:06.249Z,1009.23
2018-04-11T00:55:06.222Z,1009.22
2018-04-11T00:56:06.236Z,1009.22
2018-04-11T00:57:06.188Z,1009.22
2018-04-11T00:58:06.221Z,1009.21
2018-04-11T00:59:06.212Z,1009.22
2018-04-11T01:00:06.201Z,1009.22
2018-04-11T01:01:06.229Z,1009.21
2018-04-11T01:02:06.245Z,1009.23
2018-04-11T01:03:06.214Z,1009.19
2018-04-11T01:04:06.220Z,1009.23
2018-04-11T01:05:06.418Z,1009.24
2018-04-11T01:06:06.229Z,1009.22
2018-04-11T01:07:06.212Z,1009.24
2018-04-11T01:08:06.518Z,1009.25
2018-04-11T01:09:06.237Z,1009.21
2018-04-11T01:10:06.245Z,1009.24
2018-04-11T01:11:06.249Z,1009.24
2018-04-11T01:12:06.181Z,1009.21
2018-04-11T01:13:06.381Z,1009.28
2018-04-11T01:14:06.287Z,1009.25
2018-04-11T01:15:06.509Z,1009.29
2018-04-11T01:16:06.429Z,1009.22
2018-04-11T01:17:06.491Z,1009.23
2018-04-11T01:18:06.185Z,1009.23
2018-04-11T01:19:06.183Z,1009.24
2018-04-11T01:20:06.308Z,1009.22
2018-04-11T01:21:06.350Z,1009.24
2018-04-11T01:22:06.579Z,1009.24
2018-04-11T01:23:06.237Z,1009.22
2018-04-11T01:24:06.202Z,1009.21
2018-04-11T01:25:06.508Z,1009.24
2018-04-11T01:26:06.213Z,1009.23
2018-04-11T01:27:06.231Z,1009.24
2018-04-11T01:28:06.473Z,1009.24
2018-04-11T01:29:06.409Z,1009.26
2018-04-11T01:30:06.197Z,1009.21
2018-04-11T01:31:06.202Z,1009.2
2018-04-11T01:32:06.268Z,1009.2
2018-04-11T01:33:06.557Z,1009.17
2018-04-11T01:34:06.244Z,1009.2
2018-04-11T01:35:06.197Z,1009.15
2018-04-11T01:36:06.191Z,1009.2
2018-04-11T01:37:06.190Z,1009.19
2018-04-11T01:38:06.442Z,1009.2
2018-04-11T01:39:06.403Z,1009.16
2018-04-11T01:40:06.193Z,1009.18
2018-04-11T01:41:06.186Z,1009.14
2018-04-11T01:42:06.513Z,1009.13
2018-04-11T01:43:06.501Z,1009.17
2018-04-11T01:44:06.196Z,1009.17
2018-04-11T01:45:06.191Z,1009.18
2018-04-11T01:46:06.179Z,1009.18
2018-04-11T01:47:06.522Z,1009.19
2018-04-11T01:48:06.405Z,1009.2
2018-04-11T01:49:06.494Z,1009.19
2018-04-11T01:50:06.219Z,1009.21
2018-04-11T01:51:06.228Z,1009.21
2018-04-11T01:52:06.201Z,1009.21
2018-04-11T01:53:06.492Z,1009.22
2018-04-11T01:54:06.188Z,1009.23
2018-04-11T01:55:06.163Z,1009.24
2018-04-11T01:56:06.179Z,1009.24
2018-04-11T01:57:06.203Z,1009.25
2018-04-11T01:58:06.192Z,1009.23
2018-04-11T01:59:06.184Z,1009.22
2018-04-11T02:00:06.241Z,1009.21
2018-04-11T02:01:06.228Z,1009.22
2018-04-11T02:02:06.237Z,1009.24
2018-04-11T02:03:06.277Z,1009.22
2018-04-11T02:04:06.186Z,1009.2
2018-04-11T02:05:06.215Z,1009.24
2018-04-11T02:06:06.325Z,1009.29
2018-04-11T02:07:06.380Z,1009.25
2018-04-11T02:08:06.182Z,1009.29
2018-04-11T02:09:06.185Z,1009.28
2018-04-11T02:10:06.257Z,1009.27
2018-04-11T02:11:06.301Z,1009.3
2018-04-11T02:12:06.232Z,1009.28
2018-04-11T02:13:06.430Z,1009.26
2018-04-11T02:14:06.543Z,1009.26
2018-04-11T02:15:06.220Z,1009.29
2018-04-11T02:16:06.200Z,1009.25
2018-04-11T02:17:06.530Z,1009.24
2018-04-11T02:18:06.452Z,1009.28
2018-04-11T02:19:06.413Z,1009.3
2018-04-11T02:20:06.188Z,1009.3
2018-04-11T02:21:06.177Z,1009.29
2018-04-11T02:22:06.308Z,1009.29
2018-04-11T02:23:06.507Z,1009.31
2018-04-11T02:24:06.419Z,1009.32
2018-04-11T02:25:06.153Z,1009.31
2018-04-11T02:26:06.200Z,1009.32
2018-04-11T02:27:06.200Z,1009.34
2018-04-11T02:28:06.287Z,1009.35
2018-04-11T02:29:06.172Z,1009.33
2018-04-11T02:30:06.177Z,1009.32
2018-04-11T02:31:06.177Z,1009.32
2018-04-11T02:32:06.374Z,1009.33
2018-04-11T02:33:06.184Z,1009.34
2018-04-11T02:34:06.154Z,1009.31
2018-04-11T02:35:06.342Z,1009.34
2018-04-11T02:36:06.269Z,1009.36
2018-04-11T02:37:06.226Z,1009.36
2018-04-11T02:38:06.188Z,1009.33
2018-04-11T02:39:06.545Z,1009.39
2018-04-11T02:40:06.204Z,1009.38
2018-04-11T02:41:06.619Z,1009.39
2018-04-11T02:42:06.215Z,1009.39
2018-04-11T02:43:06.166Z,1009.38
2018-04-11T02:44:06.485Z,1009.38
2018-04-11T02:45:06.199Z,1009.35
2018-04-11T02:46:06.202Z,1009.36
2018-04-11T02:47:06.187Z,1009.35
2018-04-11T02:48:06.717Z,1009.35
2018-04-11T02:49:06.498Z,1009.36
2018-04-11T02:50:06.249Z,1009.37
2018-04-11T02:51:06.165Z,1009.35
2018-04-11T02:52:06.200Z,1009.39
2018-04-11T02:53:06.249Z,1009.37
2018-04-11T02:54:06.331Z,1009.38
2018-04-11T02:55:06.237Z,1009.41
2018-04-11T02:56:06.309Z,1009.37
2018-04-11T02:57:06.384Z,1009.44
2018-04-11T02:58:06.157Z,1009.46
2018-04-11T02:59:06.493Z,1009.5
2018-04-11T03:00:06.195Z,1009.49
2018-04-11T03:01:06.222Z,1009.51
2018-04-11T03:02:06.229Z,1009.5
2018-04-11T03:03:06.186Z,1009.47
2018-04-11T03:04:06.573Z,1009.48
2018-04-11T03:05:06.215Z,1009.49
2018-04-11T03:06:06.377Z,1009.48
2018-04-11T03:07:06.409Z,1009.49
2018-04-11T03:08:06.442Z,1009.46
2018-04-11T03:09:06.251Z,1009.5
2018-04-11T03:10:06.635Z,1009.51
2018-04-11T03:11:06.140Z,1009.5
2018-04-11T03:12:06.646Z,1009.49
2018-04-11T03:13:06.136Z,1009.52
2018-04-11T03:14:06.215Z,1009.51
2018-04-11T03:15:06.180Z,1009.52
2018-04-11T03:16:06.142Z,1009.47
2018-04-11T03:17:06.643Z,1009.5
2018-04-11T03:18:06.176Z,1009.52
2018-04-11T03:19:06.125Z,1009.51
2018-04-11T03:20:06.203Z,1009.52
2018-04-11T03:21:06.447Z,1009.51
2018-04-11T03:22:06.514Z,1009.57
2018-04-11T03:23:06.277Z,1009.54
2018-04-11T03:24:06.391Z,1009.53
2018-04-11T03:25:06.176Z,1009.54
2018-04-11T03:26:06.337Z,1009.6
2018-04-11T03:27:06.187Z,1009.57
2018-04-11T03:28:06.585Z,1009.54
2018-04-11T03:29:06.201Z,1009.57
2018-04-11T03:30:06.198Z,1009.57
2018-04-11T03:31:06.174Z,1009.56
2018-04-11T03:32:06.199Z,1009.55
2018-04-11T03:33:06.163Z,1009.54
2018-04-11T03:34:06.181Z,1009.56
2018-04-11T03:35:06.159Z,1009.6
2018-04-11T03:36:06.165Z,1009.58
2018-04-11T03:37:06.170Z,1009.62
2018-04-11T03:38:06.172Z,1009.63
2018-04-11T03:39:06.386Z,1009.6
2018-04-11T03:40:06.144Z,1009.6
2018-04-11T03:41:06.153Z,1009.62
2018-04-11T03:42:06.368Z,1009.58
2018-04-11T03:43:06.150Z,1009.6
2018-04-11T03:44:06.183Z,1009.59
2018-04-11T03:45:06.135Z,1009.61
2018-04-11T03:46:06.163Z,1009.6
2018-04-11T03:47:06.159Z,1009.59
2018-04-11T03:48:06.535Z,1009.59
2018-04-11T03:49:06.187Z,1009.59
2018-04-11T03:50:06.161Z,1009.57
2018-04-11T03:51:06.146Z,1009.61
2018-04-11T03:52:06.598Z,1009.59
2018-04-11T03:53:06.191Z,1009.6
2018-04-11T03:54:06.384Z,1009.58
2018-04-11T03:55:06.212Z,1009.61
2018-04-11T03:56:06.455Z,1009.65
2018-04-11T03:57:06.163Z,1009.63
2018-04-11T03:58:06.175Z,1009.59
2018-04-11T03:59:06.199Z,1009.59
2018-04-11T04:00:06.246Z,1009.6
2018-04-11T04:01:06.174Z,1009.6
2018-04-11T04:02:06.164Z,1009.57
2018-04-11T04:03:06.195Z,1009.59
2018-04-11T04:04:06.155Z,1009.56
2018-04-11T04:05:06.223Z,1009.57
2018-04-11T04:06:06.167Z,1009.61
2018-04-11T04:07:06.176Z,1009.58
2018-04-11T04:08:06.158Z,1009.6
2018-04-11T04:09:06.433Z,1009.61
2018-04-11T04:10:06.193Z,1009.57
2018-04-11T04:11:06.157Z,1009.57
2018-04-11T04:12:06.597Z,1009.54
2018-04-11T04:13:06.184Z,1009.58
2018-04-11T04:14:06.214Z,1009.55
2018-04-11T04:15:06.204Z,1009.56
2018-04-11T04:16:06.579Z,1009.57
2018-04-11T04:17:06.406Z,1009.62
2018-04-11T04:18:06.133Z,1009.63
2018-04-11T04:19:06.298Z,1009.67
2018-04-11T04:20:06.173Z,1009.62
2018-04-11T04:21:06.177Z,1009.64
2018-04-11T04:22:06.490Z,1009.63
2018-04-11T04:23:06.141Z,1009.61
2018-04-11T04:24:06.384Z,1009.65
2018-04-11T04:25:06.150Z,1009.61
2018-04-11T04:26:06.269Z,1009.63
2018-04-11T04:27:06.163Z,1009.6
2018-04-11T04:28:06.197Z,1009.63
2018-04-11T04:29:06.186Z,1009.65
2018-04-11T04:30:06.135Z,1009.62
2018-04-11T04:31:06.148Z,1009.64
2018-04-11T04:32:06.218Z,1009.68
2018-04-11T04:33:06.122Z,1009.65
2018-04-11T04:34:06.259Z,1009.69
2018-04-11T04:35:06.151Z,1009.64
2018-04-11T04:36:06.168Z,1009.69
2018-04-11T04:37:06.825Z,1009.68
2018-04-11T04:38:06.161Z,1009.73
2018-04-11T04:39:06.161Z,1009.67
2018-04-11T04:40:06.331Z,1009.69
2018-04-11T04:41:06.125Z,1009.75
2018-04-11T04:42:06.259Z,1009.7
2018-04-11T04:43:06.145Z,1009.74
2018-04-11T04:44:06.228Z,1009.72
2018-04-11T04:45:06.144Z,1009.72
2018-04-11T04:46:06.253Z,1009.74
2018-04-11T04:47:06.200Z,1009.78
2018-04-11T04:48:06.163Z,1009.8
2018-04-11T04:49:06.457Z,1009.78
2018-04-11T04:50:06.173Z,1009.83
2018-04-11T04:51:06.289Z,1009.81
2018-04-11T04:52:06.728Z,1009.87
2018-04-11T04:53:06.287Z,1009.84
2018-04-11T04:54:06.245Z,1009.86
2018-04-11T04:55:06.157Z,1009.85
2018-04-11T04:56:06.182Z,1009.88
2018-04-11T04:57:06.122Z,1009.85
2018-04-11T04:58:06.244Z,1009.87
2018-04-11T04:59:06.180Z,1009.89
2018-04-11T05:00:06.132Z,1009.85
2018-04-11T05:01:06.195Z,1009.9
2018-04-11T05:02:06.181Z,1009.88
2018-04-11T05:03:06.425Z,1009.86
2018-04-11T05:04:06.104Z,1009.87
2018-04-11T05:05:06.320Z,1009.81
2018-04-11T05:06:06.551Z,1009.88
2018-04-11T05:07:06.157Z,1009.82
2018-04-11T05:08:06.144Z,1009.89
2018-04-11T05:09:06.111Z,1009.89
2018-04-11T05:10:06.097Z,1009.88
2018-04-11T05:11:06.703Z,1009.86
2018-04-11T05:12:06.112Z,1009.91
2018-04-11T05:13:06.221Z,1009.89
2018-04-11T05:14:06.120Z,1009.89
2018-04-11T05:15:06.242Z,1009.86
2018-04-11T05:16:06.175Z,1009.86
2018-04-11T05:17:06.110Z,1009.87
2018-04-11T05:18:06.235Z,1009.92
2018-04-11T05:19:06.134Z,1009.9
2018-04-11T05:20:06.114Z,1009.88
2018-04-11T05:21:06.127Z,1009.9
2018-04-11T05:22:06.143Z,1009.92
2018-04-11T05:23:06.204Z,1009.94
2018-04-11T05:24:06.244Z,1009.95
2018-04-11T05:25:06.538Z,1009.93
2018-04-11T05:26:06.103Z,1009.92
2018-04-11T05:27:06.149Z,1009.95
2018-04-11T05:28:06.137Z,1009.97
2018-04-11T05:29:06.110Z,1009.96
2018-04-11T05:30:06.092Z,1009.97
2018-04-11T05:31:06.130Z,1009.97
2018-04-11T05:32:06.137Z,1009.99
2018-04-11T05:33:06.182Z,1010
2018-04-11T05:34:06.527Z,1009.97
2018-04-11T05:35:06.197Z,1009.97
2018-04-11T05:36:06.112Z,1009.93
2018-04-11T05:37:06.099Z,1009.99
2018-04-11T05:38:06.092Z,1009.98
2018-04-11T05:39:06.128Z,1009.97
2018-04-11T05:40:06.107Z,1009.97
2018-04-11T05:41:06.133Z,1009.94
2018-04-11T05:42:06.351Z,1009.96
2018-04-11T05:43:06.120Z,1009.95
2018-04-11T05:44:06.518Z,1009.92
2018-04-11T05:45:06.167Z,1009.93
2018-04-11T05:46:06.118Z,1009.97
2018-04-11T05:47:06.173Z,1009.96
2018-04-11T05:48:06.092Z,1010
2018-04-11T05:49:06.137Z,1010
2018-04-11T05:50:06.145Z,1010.02
2018-04-11T05:51:06.125Z,1010.03
2018-04-11T05:52:06.125Z,1010.02
2018-04-11T05:53:06.323Z,1009.99
2018-04-11T05:54:06.099Z,1010.06
2018-04-11T05:55:06.131Z,1010.05
2018-04-11T05:56:06.084Z,1010.04
2018-04-11T05:57:06.143Z,1010.11
2018-04-11T05:58:06.201Z,1010.12
2018-04-11T05:59:06.113Z,1010.12
2018-04-11T06:00:06.105Z,1010.14
2018-04-11T06:01:06.151Z,1010.17
2018-04-11T06:02:06.091Z,1010.18
2018-04-11T06:03:06.205Z,1010.19
2018-04-11T06:04:06.103Z,1010.19
2018-04-11T06:05:06.126Z,1010.15
2018-04-11T06:06:06.128Z,1010.16
2018-04-11T06:07:06.115Z,1010.15
2018-04-11T06:08:06.132Z,1010.17
2018-04-11T06:09:06.332Z,1010.16
2018-04-11T06:10:06.091Z,1010.18
2018-04-11T06:11:06.079Z,1010.18
2018-04-11T06:12:06.125Z,1010.18
2018-04-11T06:13:06.152Z,1010.22
2018-04-11T06:14:06.286Z,1010.22
2018-04-11T06:15:06.125Z,1010.21
2018-04-11T06:16:06.238Z,1010.15
2018-04-11T06:17:06.253Z,1010.21
2018-04-11T06:18:06.135Z,1010.23
2018-04-11T06:19:06.142Z,1010.2
2018-04-11T06:20:06.256Z,1010.21
2018-04-11T06:21:06.139Z,1010.24
2018-04-11T06:22:06.109Z,1010.19
2018-04-11T06:23:06.614Z,1010.19
2018-04-11T06:24:06.271Z,1010.22
2018-04-11T06:25:06.113Z,1010.2
2018-04-11T06:26:06.129Z,1010.17
2018-04-11T06:27:06.120Z,1010.17
2018-04-11T06:28:06.347Z,1010.2
2018-04-11T06:29:06.285Z,1010.15
2018-04-11T06:30:06.328Z,1010.17
2018-04-11T06:31:06.148Z,1010.17
2018-04-11T06:32:06.112Z,1010.14
2018-04-11T06:33:06.145Z,1010.16
2018-04-11T06:34:06.149Z,1010.18
2018-04-11T06:35:06.273Z,1010.16
2018-04-11T06:36:06.068Z,1010.13
2018-04-11T06:37:06.130Z,1010.15
2018-04-11T06:38:06.133Z,1010.15
2018-04-11T06:39:06.146Z,1010.11
2018-04-11T06:40:06.096Z,1010.12
2018-04-11T06:41:06.283Z,1010.1
2018-04-11T06:42:06.290Z,1010.15
2018-04-11T06:43:06.261Z,1010.12
2018-04-11T06:44:06.142Z,1010.15
2018-04-11T06:45:06.125Z,1010.11
2018-04-11T06:46:06.129Z,1010.11
2018-04-11T06:47:06.116Z,1010.15
2018-04-11T06:48:06.094Z,1010.12
2018-04-11T06:49:06.135Z,1010.09
2018-04-11T06:50:06.134Z,1010.1
2018-04-11T06:51:06.118Z,1010.04
2018-04-11T06:52:06.071Z,1010.12
2018-04-11T06:53:06.096Z,1010.11
2018-04-11T06:54:06.105Z,1010.1
2018-04-11T06:55:06.122Z,1010.13
2018-04-11T06:56:06.098Z,1010.16
2018-04-11T06:57:06.132Z,1010.1
2018-04-11T06:58:06.084Z,1010.14
2018-04-11T06:59:06.125Z,1010.12
2018-04-11T07:00:06.142Z,1010.12
2018-04-11T07:01:06.144Z,1010.12
2018-04-11T07:02:06.217Z,1010.12
2018-04-11T07:03:06.099Z,1010.14
2018-04-11T07:04:06.106Z,1010.13
2018-04-11T07:05:06.271Z,1010.1
2018-04-11T07:06:06.113Z,1010.12
2018-04-11T07:07:06.105Z,1010.1
2018-04-11T07:08:06.121Z,1010.09
2018-04-11T07:09:06.093Z,1010.09
2018-04-11T07:10:06.103Z,1010.09
2018-04-11T07:11:06.081Z,1010.09
2018-04-11T07:12:06.083Z,1010.08
2018-04-11T07:13:06.119Z,1010.1
2018-04-11T07:14:06.459Z,1010.09
2018-04-11T07:15:06.099Z,1010.1
2018-04-11T07:16:06.085Z,1010.13
2018-04-11T07:17:06.094Z,1010.14
2018-04-11T07:18:06.087Z,1010.12
2018-04-11T07:19:06.261Z,1010.14
2018-04-11T07:20:06.125Z,1010.16
2018-04-11T07:21:06.065Z,1010.17
2018-04-11T07:22:06.110Z,1010.14
2018-04-11T07:23:06.161Z,1010.16
2018-04-11T07:24:06.276Z,1010.12
2018-04-11T07:25:06.307Z,1010.15
2018-04-11T07:26:06.107Z,1010.13
2018-04-11T07:27:06.097Z,1010.1
2018-04-11T07:28:06.071Z,1010.16
2018-04-11T07:29:06.075Z,1010.14
2018-04-11T07:30:06.092Z,1010.16
2018-04-11T07:31:06.105Z,1010.14
2018-04-11T07:32:06.077Z,1010.17
2018-04-11T07:33:06.113Z,1010.18
2018-04-11T07:34:06.107Z,1010.17
2018-04-11T07:35:06.196Z,1010.21
2018-04-11T07:36:06.214Z,1010.19
2018-04-11T07:37:06.060Z,1010.22
2018-04-11T07:38:06.227Z,1010.21
2018-04-11T07:39:06.070Z,1010.2
2018-04-11T07:40:06.277Z,1010.19
2018-04-11T07:41:06.306Z,1010.13
2018-04-11T07:42:06.091Z,1010.14
2018-04-11T07:43:06.068Z,1010.19
2018-04-11T07:44:06.128Z,1010.15
2018-04-11T07:45:06.132Z,1010.18
2018-04-11T07:46:06.319Z,1010.17
2018-04-11T07:47:06.084Z,1010.16
2018-04-11T07:48:06.099Z,1010.19
2018-04-11T07:49:06.099Z,1010.2
2018-04-11T07:50:06.104Z,1010.2
2018-04-11T07:51:06.095Z,1010.16
2018-04-11T07:52:06.092Z,1010.13
2018-04-11T07:53:06.125Z,1010.13
2018-04-11T07:54:06.565Z,1010.15
2018-04-11T07:55:06.068Z,1010.1
2018-04-11T07:56:06.078Z,1010.13
2018-04-11T07:57:06.046Z,1010.11
2018-04-11T07:58:06.090Z,1010.08
2018-04-11T07:59:06.051Z,1010.11
2018-04-11T08:00:06.053Z,1010.06
2018-04-11T08:01:06.080Z,1010.11
2018-04-11T08:02:06.085Z,1010.1
2018-04-11T08:03:06.191Z,1010.07
2018-04-11T08:04:06.183Z,1010.07
2018-04-11T08:05:06.108Z,1010.04
2018-04-11T08:06:06.070Z,1010.02
2018-04-11T08:07:06.066Z,1010.05
2018-04-11T08:08:06.205Z,1010.06
2018-04-11T08:09:06.102Z,1010.03
2018-04-11T08:10:06.270Z,1010.01
2018-04-11T08:11:06.123Z,1010.01
2018-04-11T08:12:06.082Z,1010.02
2018-04-11T08:13:06.140Z,1010.01
2018-04-11T08:14:06.068Z,1010.01
2018-04-11T08:15:06.148Z,1009.95
2018-04-11T08:16:06.045Z,1009.97
2018-04-11T08:17:06.114Z,1009.95
2018-04-11T08:18:06.138Z,1009.95
2018-04-11T08:19:06.067Z,1009.96
2018-04-11T08:20:06.031Z,1009.97
2018-04-11T08:21:06.088Z,1009.97
2018-04-11T08:22:06.096Z,1010.02
2018-04-11T08:23:06.095Z,1009.98
2018-04-11T08:24:06.095Z,1009.98
2018-04-11T08:25:06.079Z,1009.97
2018-04-11T08:26:06.189Z,1010.02
2018-04-11T08:27:06.070Z,1009.98
2018-04-11T08:28:06.105Z,1009.99
2018-04-11T08:29:06.076Z,1010.01
2018-04-11T08:30:06.080Z,1009.95
2018-04-11T08:31:06.094Z,1009.97
2018-04-11T08:32:06.072Z,1009.99
2018-04-11T08:33:06.232Z,1009.99
2018-04-11T08:34:06.132Z,1009.97
2018-04-11T08:35:06.078Z,1010
2018-04-11T08:36:06.049Z,1009.98
2018-04-11T08:37:06.069Z,1009.99
2018-04-11T08:38:06.114Z,1010.01
2018-04-11T08:39:06.070Z,1010.03
2018-04-11T08:40:06.092Z,1010.04
2018-04-11T08:41:06.055Z,1010.03
2018-04-11T08:42:06.093Z,1010.06
2018-04-11T08:43:06.038Z,1010.08
2018-04-11T08:44:06.090Z,1010.06
2018-04-11T08:45:06.059Z,1010.11
2018-04-11T08:46:06.050Z,1010.11
2018-04-11T08:47:06.061Z,1010.12
2018-04-11T08:48:06.116Z,1010.09
2018-04-11T08:49:06.053Z,1010.04
2018-04-11T08:50:06.064Z,1010.03
2018-04-11T08:51:06.099Z,1010.02
2018-04-11T08:52:06.089Z,1010.04
2018-04-11T08:53:06.059Z,1010.02
2018-04-11T08:54:06.097Z,1010
2018-04-11T08:55:06.035Z,1009.99
2018-04-11T08:56:06.057Z,1009.96
2018-04-11T08:57:06.050Z,1009.98
2018-04-11T08:58:06.050Z,1009.96
2018-04-11T08:59:06.064Z,1009.97
2018-04-11T09:00:06.084Z,1009.97
2018-04-11T09:01:06.047Z,1009.95
2018-04-11T09:02:06.047Z,1009.97
2018-04-11T09:03:06.126Z,1009.96
2018-04-11T09:04:06.064Z,1009.93
2018-04-11T09:05:06.032Z,1009.97
2018-04-11T09:06:06.106Z,1009.95
2018-04-11T09:07:06.066Z,1009.91
2018-04-11T09:08:06.165Z,1009.91
2018-04-11T09:09:06.109Z,1009.93
2018-04-11T09:10:06.049Z,1009.89
2018-04-11T09:11:06.056Z,1009.88
2018-04-11T09:12:06.123Z,1009.86
2018-04-11T09:13:06.075Z,1009.87
2018-04-11T09:14:06.027Z,1009.88
2018-04-11T09:15:06.059Z,1009.88
2018-04-11T09:16:06.037Z,1009.86
2018-04-11T09:17:06.046Z,1009.93
2018-04-11T09:18:06.049Z,1009.9
2018-04-11T09:19:06.108Z,1009.86
2018-04-11T09:20:06.081Z,1009.82
2018-04-11T09:21:06.058Z,1009.88
2018-04-11T09:22:06.090Z,1009.79
2018-04-11T09:23:06.091Z,1009.83
2018-04-11T09:24:06.145Z,1009.8
2018-04-11T09:25:06.194Z,1009.78
2018-04-11T09:26:06.460Z,1009.77
2018-04-11T09:27:06.496Z,1009.78
2018-04-11T09:28:06.044Z,1009.77
2018-04-11T09:29:06.038Z,1009.77
2018-04-11T09:30:06.027Z,1009.75
2018-04-11T09:31:06.034Z,1009.75
2018-04-11T09:32:06.022Z,1009.79
2018-04-11T09:33:06.266Z,1009.75
2018-04-11T09:34:06.099Z,1009.77
2018-04-11T09:35:06.002Z,1009.82
2018-04-11T09:36:06.028Z,1009.79
2018-04-11T09:37:06.045Z,1009.78
2018-04-11T09:38:06.061Z,1009.73
2018-04-11T09:39:06.067Z,1009.76
2018-04-11T09:40:06.171Z,1009.72
2018-04-11T09:41:06.088Z,1009.72
2018-04-11T09:42:06.027Z,1009.75
2018-04-11T09:43:06.028Z,1009.72
2018-04-11T09:44:06.045Z,1009.71
2018-04-11T09:45:06.082Z,1009.72
2018-04-11T09:46:06.129Z,1009.7
2018-04-11T09:47:06.046Z,1009.68
2018-04-11T09:48:06.052Z,1009.63
2018-04-11T09:49:06.070Z,1009.6
2018-04-11T09:50:06.056Z,1009.62
2018-04-11T09:51:06.122Z,1009.59
2018-04-11T09:52:06.044Z,1009.58
2018-04-11T09:53:06.069Z,1009.51
2018-04-11T09:54:06.029Z,1009.53
2018-04-11T09:55:06.031Z,1009.49
2018-04-11T09:56:06.041Z,1009.51
2018-04-11T09:57:06.040Z,1009.48
2018-04-11T09:58:06.223Z,1009.46
2018-04-11T09:59:06.031Z,1009.48
2018-04-11T10:00:06.046Z,1009.45
2018-04-11T10:01:06.032Z,1009.46
2018-04-11T10:02:06.052Z,1009.45
2018-04-11T10:03:06.077Z,1009.45
2018-04-11T10:04:06.025Z,1009.38
2018-04-11T10:05:06.083Z,1009.4
2018-04-11T10:06:06.060Z,1009.43
2018-04-11T10:07:06.039Z,1009.39
2018-04-11T10:08:06.056Z,1009.4
2018-04-11T10:09:06.034Z,1009.35
2018-04-11T10:10:06.040Z,1009.38
2018-04-11T10:11:06.028Z,1009.38
2018-04-11T10:12:06.036Z,1009.3
2018-04-11T10:13:06.184Z,1009.36
2018-04-11T10:14:06.096Z,1009.31
2018-04-11T10:15:06.032Z,1009.32
2018-04-11T10:16:06.063Z,1009.33
2018-04-11T10:17:06.050Z,1009.29
2018-04-11T10:18:06.219Z,1009.3
2018-04-11T10:19:06.310Z,1009.29
2018-04-11T10:20:06.031Z,1009.29
2018-04-11T10:21:06.167Z,1009.27
2018-04-11T10:22:06.087Z,1009.31
2018-04-11T10:23:06.059Z,1009.25
2018-04-11T10:24:06.050Z,1009.24
2018-04-11T10:25:06.089Z,1009.24
2018-04-11T10:26:06.036Z,1009.23
2018-04-11T10:27:06.057Z,1009.22
2018-04-11T10:28:06.280Z,1009.17
2018-04-11T10:29:06.057Z,1009.15
2018-04-11T10:30:06.089Z,1009.13
2018-04-11T10:31:06.079Z,1009.14
2018-04-11T10:32:06.191Z,1009.1
2018-04-11T10:33:06.158Z,1009.13
2018-04-11T10:34:06.239Z,1009.09
2018-04-11T10:35:06.032Z,1009.09
2018-04-11T10:36:06.120Z,1009.05
2018-04-11T10:37:06.080Z,1009.05
2018-04-11T10:38:06.154Z,1009.02
2018-04-11T10:39:06.081Z,1008.99
2018-04-11T10:40:06.250Z,1009.03
2018-04-11T10:41:06.058Z,1008.96
2018-04-11T10:42:06.023Z,1008.99
2018-04-11T10:43:06.170Z,1008.97
2018-04-11T10:44:06.021Z,1008.95
2018-04-11T10:45:06.072Z,1008.94
2018-04-11T10:46:06.040Z,1008.93
2018-04-11T10:47:06.036Z,1008.93
2018-04-11T10:48:06.072Z,1008.89
2018-04-11T10:49:06.026Z,1008.88
2018-04-11T10:50:06.040Z,1008.9
2018-04-11T10:51:06.048Z,1008.89
2018-04-11T10:52:06.042Z,1008.9
2018-04-11T10:53:06.027Z,1008.88
2018-04-11T10:54:06.030Z,1008.88
2018-04-11T10:55:06.057Z,1008.88
2018-04-11T10:56:06.030Z,1008.88
2018-04-11T10:57:06.019Z,1008.87
2018-04-11T10:58:06.025Z,1008.87
2018-04-11T10:59:06.028Z,1008.88
2018-04-11T11:00:06.024Z,1008.81
2018-04-11T11:01:06.086Z,1008.86
2018-04-11T11:02:06.050Z,1008.8
2018-04-11T11:03:06.008Z,1008.82
2018-04-11T11:04:06.027Z,1008.8
2018-04-11T11:05:06.021Z,1008.78
2018-04-11T11:06:06.032Z,1008.77
2018-04-11T11:07:06.040Z,1008.74
2018-04-11T11:08:06.125Z,1008.79
2018-04-11T11:09:06.002Z,1008.79
2018-04-11T11:10:06.033Z,1008.74
2018-04-11T11:11:06.054Z,1008.77
2018-04-11T11:12:06.193Z,1008.74
2018-04-11T11:13:06.031Z,1008.7
2018-04-11T11:14:06.077Z,1008.68
2018-04-11T11:15:06.021Z,1008.71
2018-04-11T11:16:06.004Z,1008.67
2018-04-11T11:17:06.001Z,1008.72
2018-04-11T11:18:06.024Z,1008.68
2018-04-11T11:19:06.043Z,1008.67
2018-04-11T11:20:06.095Z,1008.7
2018-04-11T11:21:06.150Z,1008.66
2018-04-11T11:22:06.037Z,1008.65
2018-04-11T11:23:06.066Z,1008.69
2018-04-11T11:24:06.037Z,1008.71
2018-04-11T11:25:06.023Z,1008.7
2018-04-11T11:26:06.174Z,1008.71
2018-04-11T11:27:06.101Z,1008.72
2018-04-11T11:28:06.065Z,1008.72
2018-04-11T11:29:06.040Z,1008.74
2018-04-11T11:30:05.981Z,1008.67
2018-04-11T11:31:05.999Z,1008.72
2018-04-11T11:32:06.244Z,1008.7
2018-04-11T11:33:06.046Z,1008.68
2018-04-11T11:34:06.006Z,1008.67
2018-04-11T11:35:06.037Z,1008.67
2018-04-11T11:36:06.039Z,1008.65
2018-04-11T11:37:06.009Z,1008.66
2018-04-11T11:38:06.014Z,1008.63
2018-04-11T11:39:05.981Z,1008.6
2018-04-11T11:40:06.021Z,1008.6
2018-04-11T11:41:06.175Z,1008.58
2018-04-11T11:42:06.019Z,1008.55
2018-04-11T11:43:06.012Z,1008.57
2018-04-11T11:44:06.059Z,1008.53
2018-04-11T11:45:06.011Z,1008.53
2018-04-11T11:46:06.042Z,1008.48
2018-04-11T11:47:06.132Z,1008.48
2018-04-11T11:48:06.000Z,1008.49
2018-04-11T11:49:06.179Z,1008.43
2018-04-11T11:50:06.023Z,1008.43
2018-04-11T11:51:06.005Z,1008.42
2018-04-11T11:52:06.233Z,1008.42
2018-04-11T11:53:05.998Z,1008.42
2018-04-11T11:54:06.101Z,1008.44
2018-04-11T11:55:06.061Z,1008.43
2018-04-11T11:56:06.009Z,1008.42
2018-04-11T11:57:05.992Z,1008.38
2018-04-11T11:58:06.010Z,1008.34
2018-04-11T11:59:06.210Z,1008.32
2018-04-11T12:00:06.019Z,1008.3
2018-04-11T12:01:06.033Z,1008.28
2018-04-11T12:02:05.988Z,1008.29
2018-04-11T12:03:05.972Z,1008.28
2018-04-11T12:04:06.008Z,1008.28
2018-04-11T12:05:05.987Z,1008.24
2018-04-11T12:06:06.022Z,1008.25
2018-04-11T12:07:06.018Z,1008.23
2018-04-11T12:08:06.025Z,1008.23